sensor_id;sensor_type;location;lat;lon;timestamp;P1;durP1;ratioP1;P2;durP2;ratioP2
20976;SDS011;10647;51.016;3.720;2022-07-11T00:00:13;11.60;;;5.10;;
20976;SDS011;10647;51.016;3.720;2022-07-11T00:02:42;6.83;;;4.90;;
20976;SDS011;10647;51.016;3.720;2022-07-11T00:05:11;9.30;;;5.28;;
20976;SDS011;10647;51.016;3.720;2022-07-11T00:07:38;10.90;;;5.28;;
20976;SDS011;10647;51.016;3.720;2022-07-11T00:10:06;12.13;;;5.28;;
20976;SDS011;10647;51.016;3.720;2022-07-11T00:12:33;8.53;;;5.15;;
20976;SDS011;10647;51.016;3.720;2022-07-11T00:15:01;8.28;;;5.03;;
20976;SDS011;10647;51.016;3.720;2022-07-11T00:17:30;7.35;;;5.20;;
20976;SDS011;10647;51.016;3.720;2022-07-11T00:19:57;7.50;;;4.90;;
20976;SDS011;10647;51.016;3.720;2022-07-11T00:22:25;9.68;;;5.37;;
20976;SDS011;10647;51.016;3.720;2022-07-11T00:24:53;7.85;;;5.42;;
20976;SDS011;10647;51.016;3.720;2022-07-11T00:27:20;8.65;;;5.78;;
20976;SDS011;10647;51.016;3.720;2022-07-11T00:29:48;8.20;;;5.70;;
20976;SDS011;10647;51.016;3.720;2022-07-11T00:32:15;9.53;;;5.30;;
20976;SDS011;10647;51.016;3.720;2022-07-11T00:34:45;9.65;;;5.05;;
20976;SDS011;10647;51.016;3.720;2022-07-11T00:37:13;10.40;;;5.22;;
20976;SDS011;10647;51.016;3.720;2022-07-11T00:39:42;13.15;;;6.70;;
20976;SDS011;10647;51.016;3.720;2022-07-11T00:42:10;11.20;;;6.87;;
20976;SDS011;10647;51.016;3.720;2022-07-11T00:44:37;10.38;;;6.85;;
20976;SDS011;10647;51.016;3.720;2022-07-11T00:47:05;11.30;;;6.53;;
20976;SDS011;10647;51.016;3.720;2022-07-11T00:49:32;9.38;;;5.78;;
20976;SDS011;10647;51.016;3.720;2022-07-11T00:52:00;9.75;;;5.60;;
20976;SDS011;10647;51.016;3.720;2022-07-11T00:54:27;12.30;;;6.45;;
20976;SDS011;10647;51.016;3.720;2022-07-11T00:56:56;8.70;;;6.33;;
20976;SDS011;10647;51.016;3.720;2022-07-11T00:59:24;12.25;;;7.10;;
20976;SDS011;10647;51.016;3.720;2022-07-11T01:01:53;11.35;;;6.42;;
20976;SDS011;10647;51.016;3.720;2022-07-11T01:04:21;10.10;;;6.30;;
20976;SDS011;10647;51.016;3.720;2022-07-11T01:06:51;11.55;;;5.95;;
20976;SDS011;10647;51.016;3.720;2022-07-11T01:09:19;12.13;;;5.92;;
20976;SDS011;10647;51.016;3.720;2022-07-11T01:11:46;11.33;;;6.70;;
20976;SDS011;10647;51.016;3.720;2022-07-11T01:14:14;9.65;;;6.55;;
20976;SDS011;10647;51.016;3.720;2022-07-11T01:16:41;11.03;;;6.08;;
20976;SDS011;10647;51.016;3.720;2022-07-11T01:19:09;12.95;;;6.42;;
20976;SDS011;10647;51.016;3.720;2022-07-11T01:21:37;10.88;;;5.42;;
20976;SDS011;10647;51.016;3.720;2022-07-11T01:24:06;11.63;;;5.70;;
20976;SDS011;10647;51.016;3.720;2022-07-11T01:26:42;10.20;;;6.17;;
20976;SDS011;10647;51.016;3.720;2022-07-11T01:29:11;12.60;;;5.70;;
20976;SDS011;10647;51.016;3.720;2022-07-11T01:31:42;10.03;;;6.20;;
20976;SDS011;10647;51.016;3.720;2022-07-11T01:34:10;8.50;;;5.50;;
20976;SDS011;10647;51.016;3.720;2022-07-11T01:36:39;7.35;;;4.65;;
20976;SDS011;10647;51.016;3.720;2022-07-11T01:39:08;8.80;;;5.10;;
20976;SDS011;10647;51.016;3.720;2022-07-11T01:41:36;10.08;;;4.92;;
20976;SDS011;10647;51.016;3.720;2022-07-11T01:44:03;7.30;;;5.03;;
20976;SDS011;10647;51.016;3.720;2022-07-11T01:46:31;8.18;;;5.55;;
20976;SDS011;10647;51.016;3.720;2022-07-11T01:48:59;10.78;;;6.10;;
20976;SDS011;10647;51.016;3.720;2022-07-11T01:51:27;10.25;;;5.50;;
20976;SDS011;10647;51.016;3.720;2022-07-11T01:53:57;9.33;;;5.70;;
20976;SDS011;10647;51.016;3.720;2022-07-11T01:56:25;9.45;;;6.00;;
20976;SDS011;10647;51.016;3.720;2022-07-11T01:58:57;10.20;;;5.63;;
20976;SDS011;10647;51.016;3.720;2022-07-11T02:01:25;9.37;;;6.00;;
20976;SDS011;10647;51.016;3.720;2022-07-11T02:03:52;9.30;;;6.00;;
20976;SDS011;10647;51.016;3.720;2022-07-11T02:06:20;9.30;;;6.03;;
20976;SDS011;10647;51.016;3.720;2022-07-11T02:08:48;11.65;;;6.90;;
20976;SDS011;10647;51.016;3.720;2022-07-11T02:11:15;11.37;;;6.93;;
20976;SDS011;10647;51.016;3.720;2022-07-11T02:13:43;10.73;;;6.30;;
20976;SDS011;10647;51.016;3.720;2022-07-11T02:16:11;9.43;;;6.80;;
20976;SDS011;10647;51.016;3.720;2022-07-11T02:18:40;10.80;;;7.50;;
20976;SDS011;10647;51.016;3.720;2022-07-11T02:21:08;8.83;;;7.00;;
20976;SDS011;10647;51.016;3.720;2022-07-11T02:23:35;11.20;;;7.00;;
20976;SDS011;10647;51.016;3.720;2022-07-11T02:26:03;9.33;;;6.80;;
20976;SDS011;10647;51.016;3.720;2022-07-11T02:28:30;12.63;;;7.20;;
20976;SDS011;10647;51.016;3.720;2022-07-11T02:30:59;11.97;;;6.80;;
20976;SDS011;10647;51.016;3.720;2022-07-11T02:33:27;12.20;;;7.87;;
20976;SDS011;10647;51.016;3.720;2022-07-11T02:35:56;12.90;;;8.17;;
20976;SDS011;10647;51.016;3.720;2022-07-11T02:38:23;12.10;;;7.80;;
20976;SDS011;10647;51.016;3.720;2022-07-11T02:40:54;14.67;;;9.20;;
20976;SDS011;10647;51.016;3.720;2022-07-11T02:43:23;13.43;;;8.37;;
20976;SDS011;10647;51.016;3.720;2022-07-11T02:45:52;14.87;;;8.13;;
20976;SDS011;10647;51.016;3.720;2022-07-11T02:48:19;10.93;;;7.30;;
20976;SDS011;10647;51.016;3.720;2022-07-11T02:50:48;13.37;;;7.67;;
20976;SDS011;10647;51.016;3.720;2022-07-11T02:53:18;13.00;;;7.80;;
20976;SDS011;10647;51.016;3.720;2022-07-11T02:55:46;12.13;;;7.60;;
20976;SDS011;10647;51.016;3.720;2022-07-11T02:58:16;12.07;;;7.57;;
20976;SDS011;10647;51.016;3.720;2022-07-11T03:00:43;10.83;;;8.07;;
20976;SDS011;10647;51.016;3.720;2022-07-11T03:03:11;11.13;;;7.93;;
20976;SDS011;10647;51.016;3.720;2022-07-11T03:05:40;11.13;;;8.03;;
20976;SDS011;10647;51.016;3.720;2022-07-11T03:08:08;14.10;;;7.50;;
20976;SDS011;10647;51.016;3.720;2022-07-11T03:10:35;11.03;;;7.37;;
20976;SDS011;10647;51.016;3.720;2022-07-11T03:13:05;12.20;;;8.00;;
20976;SDS011;10647;51.016;3.720;2022-07-11T03:15:32;9.90;;;7.70;;
20976;SDS011;10647;51.016;3.720;2022-07-11T03:18:00;12.13;;;8.57;;
20976;SDS011;10647;51.016;3.720;2022-07-11T03:20:27;11.73;;;8.40;;
20976;SDS011;10647;51.016;3.720;2022-07-11T03:22:55;13.63;;;8.93;;
20976;SDS011;10647;51.016;3.720;2022-07-11T03:25:24;11.13;;;7.63;;
20976;SDS011;10647;51.016;3.720;2022-07-11T03:27:52;13.47;;;8.37;;
20976;SDS011;10647;51.016;3.720;2022-07-11T03:30:19;13.47;;;8.30;;
20976;SDS011;10647;51.016;3.720;2022-07-11T03:32:47;13.17;;;8.63;;
20976;SDS011;10647;51.016;3.720;2022-07-11T03:35:16;15.10;;;9.13;;
20976;SDS011;10647;51.016;3.720;2022-07-11T03:38:01;15.73;;;9.37;;
20976;SDS011;10647;51.016;3.720;2022-07-11T03:40:34;14.13;;;8.57;;
20976;SDS011;10647;51.016;3.720;2022-07-11T03:43:04;14.20;;;9.13;;
20976;SDS011;10647;51.016;3.720;2022-07-11T03:45:33;11.23;;;8.03;;
20976;SDS011;10647;51.016;3.720;2022-07-11T03:48:02;15.13;;;9.07;;
20976;SDS011;10647;51.016;3.720;2022-07-11T03:50:36;14.87;;;10.07;;
20976;SDS011;10647;51.016;3.720;2022-07-11T03:53:04;14.13;;;9.33;;
20976;SDS011;10647;51.016;3.720;2022-07-11T03:55:31;50.33;;;10.80;;
20976;SDS011;10647;51.016;3.720;2022-07-11T03:57:59;34.70;;;9.80;;
20976;SDS011;10647;51.016;3.720;2022-07-11T04:00:27;44.73;;;10.83;;
20976;SDS011;10647;51.016;3.720;2022-07-11T04:02:55;30.30;;;10.23;;
20976;SDS011;10647;51.016;3.720;2022-07-11T04:05:23;75.93;;;11.10;;
20976;SDS011;10647;51.016;3.720;2022-07-11T04:12:53;36.67;;;10.30;;
20976;SDS011;10647;51.016;3.720;2022-07-11T04:15:20;56.67;;;11.57;;
20976;SDS011;10647;51.016;3.720;2022-07-11T04:17:48;51.17;;;10.90;;
20976;SDS011;10647;51.016;3.720;2022-07-11T04:20:16;37.37;;;11.37;;
20976;SDS011;10647;51.016;3.720;2022-07-11T04:22:43;27.40;;;10.27;;
20976;SDS011;10647;51.016;3.720;2022-07-11T04:25:11;22.07;;;9.53;;
20976;SDS011;10647;51.016;3.720;2022-07-11T04:27:38;15.47;;;9.20;;
20976;SDS011;10647;51.016;3.720;2022-07-11T04:30:06;18.90;;;10.17;;
20976;SDS011;10647;51.016;3.720;2022-07-11T04:32:34;15.23;;;10.80;;
20976;SDS011;10647;51.016;3.720;2022-07-11T04:35:02;16.73;;;9.37;;
20976;SDS011;10647;51.016;3.720;2022-07-11T04:37:30;14.80;;;8.97;;
20976;SDS011;10647;51.016;3.720;2022-07-11T04:39:58;15.13;;;9.77;;
20976;SDS011;10647;51.016;3.720;2022-07-11T04:42:25;19.30;;;10.03;;
20976;SDS011;10647;51.016;3.720;2022-07-11T04:44:55;15.30;;;10.20;;
20976;SDS011;10647;51.016;3.720;2022-07-11T04:47:22;14.20;;;9.77;;
20976;SDS011;10647;51.016;3.720;2022-07-11T04:49:50;20.67;;;9.87;;
20976;SDS011;10647;51.016;3.720;2022-07-11T04:52:18;18.98;;;10.53;;
20976;SDS011;10647;51.016;3.720;2022-07-11T04:54:46;15.65;;;10.08;;
20976;SDS011;10647;51.016;3.720;2022-07-11T04:57:13;19.10;;;9.73;;
20976;SDS011;10647;51.016;3.720;2022-07-11T04:59:43;18.60;;;10.20;;
20976;SDS011;10647;51.016;3.720;2022-07-11T05:02:10;19.75;;;9.43;;
20976;SDS011;10647;51.016;3.720;2022-07-11T05:04:38;14.03;;;9.47;;
20976;SDS011;10647;51.016;3.720;2022-07-11T05:07:05;23.03;;;9.70;;
20976;SDS011;10647;51.016;3.720;2022-07-11T05:09:34;14.78;;;9.63;;
20976;SDS011;10647;51.016;3.720;2022-07-11T05:12:02;14.47;;;9.77;;
20976;SDS011;10647;51.016;3.720;2022-07-11T05:14:30;20.60;;;10.18;;
20976;SDS011;10647;51.016;3.720;2022-07-11T05:16:59;16.73;;;10.45;;
20976;SDS011;10647;51.016;3.720;2022-07-11T05:19:26;17.87;;;11.25;;
20976;SDS011;10647;51.016;3.720;2022-07-11T05:21:55;16.07;;;10.30;;
20976;SDS011;10647;51.016;3.720;2022-07-11T05:24:22;19.15;;;11.10;;
20976;SDS011;10647;51.016;3.720;2022-07-11T05:26:50;21.82;;;10.88;;
20976;SDS011;10647;51.016;3.720;2022-07-11T05:29:18;19.30;;;10.88;;
20976;SDS011;10647;51.016;3.720;2022-07-11T05:31:46;21.20;;;10.85;;
20976;SDS011;10647;51.016;3.720;2022-07-11T05:34:15;24.25;;;11.00;;
20976;SDS011;10647;51.016;3.720;2022-07-11T05:36:43;17.42;;;10.45;;
20976;SDS011;10647;51.016;3.720;2022-07-11T05:39:10;21.00;;;12.20;;
20976;SDS011;10647;51.016;3.720;2022-07-11T05:41:41;22.70;;;12.13;;
20976;SDS011;10647;51.016;3.720;2022-07-11T05:44:09;18.30;;;10.88;;
20976;SDS011;10647;51.016;3.720;2022-07-11T05:46:36;16.70;;;9.68;;
20976;SDS011;10647;51.016;3.720;2022-07-11T05:49:05;14.28;;;7.67;;
20976;SDS011;10647;51.016;3.720;2022-07-11T05:51:33;17.35;;;8.58;;
20976;SDS011;10647;51.016;3.720;2022-07-11T05:54:02;13.78;;;9.10;;
20976;SDS011;10647;51.016;3.720;2022-07-11T05:56:30;16.37;;;10.20;;
20976;SDS011;10647;51.016;3.720;2022-07-11T05:58:57;20.80;;;11.63;;
20976;SDS011;10647;51.016;3.720;2022-07-11T06:01:26;16.25;;;9.70;;
20976;SDS011;10647;51.016;3.720;2022-07-11T06:03:53;16.40;;;10.50;;
20976;SDS011;10647;51.016;3.720;2022-07-11T06:06:21;15.43;;;10.08;;
20976;SDS011;10647;51.016;3.720;2022-07-11T06:08:48;12.47;;;9.60;;
20976;SDS011;10647;51.016;3.720;2022-07-11T06:11:16;16.67;;;9.93;;
20976;SDS011;10647;51.016;3.720;2022-07-11T06:13:44;15.10;;;9.73;;
20976;SDS011;10647;51.016;3.720;2022-07-11T06:16:11;14.98;;;10.25;;
20976;SDS011;10647;51.016;3.720;2022-07-11T06:18:39;11.00;;;8.45;;
20976;SDS011;10647;51.016;3.720;2022-07-11T06:21:06;14.85;;;9.05;;
20976;SDS011;10647;51.016;3.720;2022-07-11T06:23:34;11.12;;;7.70;;
20976;SDS011;10647;51.016;3.720;2022-07-11T06:26:02;11.20;;;7.08;;
20976;SDS011;10647;51.016;3.720;2022-07-11T06:28:31;17.32;;;9.20;;
20976;SDS011;10647;51.016;3.720;2022-07-11T06:30:59;15.18;;;8.80;;
20976;SDS011;10647;51.016;3.720;2022-07-11T06:33:27;13.08;;;9.35;;
20976;SDS011;10647;51.016;3.720;2022-07-11T06:35:55;17.07;;;8.75;;
20976;SDS011;10647;51.016;3.720;2022-07-11T06:38:23;12.35;;;8.30;;
20976;SDS011;10647;51.016;3.720;2022-07-11T06:40:50;13.43;;;8.43;;
20976;SDS011;10647;51.016;3.720;2022-07-11T06:43:19;15.93;;;8.93;;
20976;SDS011;10647;51.016;3.720;2022-07-11T06:45:47;16.70;;;8.80;;
20976;SDS011;10647;51.016;3.720;2022-07-11T06:48:15;15.88;;;9.40;;
20976;SDS011;10647;51.016;3.720;2022-07-11T06:50:43;13.15;;;9.18;;
20976;SDS011;10647;51.016;3.720;2022-07-11T06:53:10;18.12;;;8.30;;
20976;SDS011;10647;51.016;3.720;2022-07-11T06:55:38;14.35;;;8.53;;
20976;SDS011;10647;51.016;3.720;2022-07-11T06:58:06;15.68;;;8.45;;
20976;SDS011;10647;51.016;3.720;2022-07-11T07:00:34;16.85;;;9.10;;
20976;SDS011;10647;51.016;3.720;2022-07-11T07:03:02;16.35;;;9.40;;
20976;SDS011;10647;51.016;3.720;2022-07-11T07:05:30;15.85;;;6.80;;
20976;SDS011;10647;51.016;3.720;2022-07-11T07:07:58;13.08;;;7.50;;
20976;SDS011;10647;51.016;3.720;2022-07-11T07:10:25;19.30;;;7.97;;
20976;SDS011;10647;51.016;3.720;2022-07-11T07:12:53;15.83;;;7.35;;
20976;SDS011;10647;51.016;3.720;2022-07-11T07:15:20;11.60;;;6.67;;
20976;SDS011;10647;51.016;3.720;2022-07-11T07:17:48;12.40;;;6.95;;
20976;SDS011;10647;51.016;3.720;2022-07-11T07:20:15;11.25;;;6.87;;
20976;SDS011;10647;51.016;3.720;2022-07-11T07:22:43;12.98;;;7.30;;
20976;SDS011;10647;51.016;3.720;2022-07-11T07:25:11;14.07;;;6.97;;
20976;SDS011;10647;51.016;3.720;2022-07-11T07:27:38;9.58;;;5.65;;
20976;SDS011;10647;51.016;3.720;2022-07-11T07:30:07;10.30;;;5.90;;
20976;SDS011;10647;51.016;3.720;2022-07-11T07:32:35;10.05;;;5.97;;
20976;SDS011;10647;51.016;3.720;2022-07-11T07:35:02;12.05;;;6.55;;
20976;SDS011;10647;51.016;3.720;2022-07-11T07:37:31;9.15;;;4.33;;
20976;SDS011;10647;51.016;3.720;2022-07-11T07:39:58;9.93;;;4.33;;
20976;SDS011;10647;51.016;3.720;2022-07-11T07:42:26;7.22;;;3.45;;
20976;SDS011;10647;51.016;3.720;2022-07-11T07:44:53;7.92;;;3.60;;
20976;SDS011;10647;51.016;3.720;2022-07-11T07:47:21;9.05;;;4.20;;
20976;SDS011;10647;51.016;3.720;2022-07-11T07:49:49;8.40;;;5.17;;
20976;SDS011;10647;51.016;3.720;2022-07-11T07:52:17;7.80;;;4.33;;
20976;SDS011;10647;51.016;3.720;2022-07-11T07:54:44;10.75;;;5.80;;
20976;SDS011;10647;51.016;3.720;2022-07-11T07:57:13;5.90;;;3.95;;
20976;SDS011;10647;51.016;3.720;2022-07-11T07:59:41;7.30;;;4.17;;
20976;SDS011;10647;51.016;3.720;2022-07-11T08:02:08;5.70;;;3.75;;
20976;SDS011;10647;51.016;3.720;2022-07-11T08:04:36;6.62;;;4.30;;
20976;SDS011;10647;51.016;3.720;2022-07-11T08:07:04;8.50;;;4.65;;
20976;SDS011;10647;51.016;3.720;2022-07-11T08:09:31;7.15;;;4.28;;
20976;SDS011;10647;51.016;3.720;2022-07-11T08:11:59;9.13;;;4.28;;
20976;SDS011;10647;51.016;3.720;2022-07-11T08:14:26;9.13;;;4.92;;
20976;SDS011;10647;51.016;3.720;2022-07-11T08:16:54;7.65;;;5.40;;
20976;SDS011;10647;51.016;3.720;2022-07-11T08:19:21;8.88;;;5.45;;
20976;SDS011;10647;51.016;3.720;2022-07-11T08:21:49;7.03;;;4.65;;
20976;SDS011;10647;51.016;3.720;2022-07-11T08:24:16;9.60;;;4.78;;
20976;SDS011;10647;51.016;3.720;2022-07-11T08:26:44;8.63;;;4.70;;
20976;SDS011;10647;51.016;3.720;2022-07-11T08:29:11;7.55;;;4.55;;
20976;SDS011;10647;51.016;3.720;2022-07-11T08:31:39;10.55;;;5.95;;
20976;SDS011;10647;51.016;3.720;2022-07-11T08:34:07;9.08;;;4.80;;
20976;SDS011;10647;51.016;3.720;2022-07-11T08:36:34;7.80;;;3.55;;
20976;SDS011;10647;51.016;3.720;2022-07-11T08:39:02;8.53;;;3.92;;
20976;SDS011;10647;51.016;3.720;2022-07-11T08:41:30;6.53;;;3.20;;
20976;SDS011;10647;51.016;3.720;2022-07-11T08:43:58;7.83;;;5.00;;
20976;SDS011;10647;51.016;3.720;2022-07-11T08:46:27;9.95;;;5.20;;
20976;SDS011;10647;51.016;3.720;2022-07-11T08:48:58;10.45;;;5.47;;
20976;SDS011;10647;51.016;3.720;2022-07-11T08:51:29;8.50;;;5.25;;
20976;SDS011;10647;51.016;3.720;2022-07-11T08:53:56;7.78;;;4.78;;
20976;SDS011;10647;51.016;3.720;2022-07-11T08:56:26;9.23;;;4.70;;
20976;SDS011;10647;51.016;3.720;2022-07-11T08:58:55;18.15;;;9.88;;
20976;SDS011;10647;51.016;3.720;2022-07-11T09:01:30;10.25;;;5.50;;
20976;SDS011;10647;51.016;3.720;2022-07-11T09:04:00;8.50;;;5.50;;
20976;SDS011;10647;51.016;3.720;2022-07-11T09:06:28;10.08;;;4.78;;
20976;SDS011;10647;51.016;3.720;2022-07-11T09:08:59;8.85;;;4.70;;
20976;SDS011;10647;51.016;3.720;2022-07-11T09:11:28;9.13;;;5.33;;
20976;SDS011;10647;51.016;3.720;2022-07-11T09:14:01;9.73;;;5.70;;
20976;SDS011;10647;51.016;3.720;2022-07-11T09:16:40;10.80;;;6.00;;
20976;SDS011;10647;51.016;3.720;2022-07-11T09:19:23;9.53;;;5.78;;
20976;SDS011;10647;51.016;3.720;2022-07-11T09:22:02;9.95;;;6.60;;
20976;SDS011;10647;51.016;3.720;2022-07-11T09:25:00;8.03;;;5.70;;
20976;SDS011;10647;51.016;3.720;2022-07-11T09:28:01;7.53;;;5.10;;
20976;SDS011;10647;51.016;3.720;2022-07-11T09:30:34;12.20;;;5.97;;
20976;SDS011;10647;51.016;3.720;2022-07-11T09:33:06;7.97;;;5.10;;
20976;SDS011;10647;51.016;3.720;2022-07-11T09:35:39;7.65;;;5.17;;
20976;SDS011;10647;51.016;3.720;2022-07-11T09:38:09;10.38;;;5.97;;
20976;SDS011;10647;51.016;3.720;2022-07-11T09:40:38;9.35;;;5.55;;
20976;SDS011;10647;51.016;3.720;2022-07-11T09:43:11;7.80;;;5.58;;
20976;SDS011;10647;51.016;3.720;2022-07-11T09:45:41;7.80;;;5.45;;
20976;SDS011;10647;51.016;3.720;2022-07-11T09:48:09;6.72;;;4.40;;
20976;SDS011;10647;51.016;3.720;2022-07-11T09:50:38;9.20;;;5.17;;
20976;SDS011;10647;51.016;3.720;2022-07-11T09:53:09;9.75;;;4.70;;
20976;SDS011;10647;51.016;3.720;2022-07-11T09:55:42;8.35;;;4.00;;
20976;SDS011;10647;51.016;3.720;2022-07-11T09:58:17;5.80;;;4.65;;
20976;SDS011;10647;51.016;3.720;2022-07-11T10:00:47;8.40;;;5.03;;
20976;SDS011;10647;51.016;3.720;2022-07-11T10:03:16;8.63;;;4.87;;
20976;SDS011;10647;51.016;3.720;2022-07-11T10:05:48;11.45;;;4.70;;
20976;SDS011;10647;51.016;3.720;2022-07-11T10:08:15;10.28;;;4.03;;
20976;SDS011;10647;51.016;3.720;2022-07-11T10:10:46;8.78;;;4.22;;
20976;SDS011;10647;51.016;3.720;2022-07-11T10:13:14;6.47;;;3.95;;
20976;SDS011;10647;51.016;3.720;2022-07-11T10:15:42;8.95;;;4.65;;
20976;SDS011;10647;51.016;3.720;2022-07-11T10:21:15;6.65;;;4.10;;
20976;SDS011;10647;51.016;3.720;2022-07-11T10:23:51;5.67;;;3.77;;
20976;SDS011;10647;51.016;3.720;2022-07-11T10:32:06;8.53;;;4.20;;
20976;SDS011;10647;51.016;3.720;2022-07-11T10:34:35;10.85;;;4.25;;
20976;SDS011;10647;51.016;3.720;2022-07-11T10:37:03;6.10;;;3.90;;
20976;SDS011;10647;51.016;3.720;2022-07-11T10:39:33;5.45;;;3.90;;
20976;SDS011;10647;51.016;3.720;2022-07-11T10:42:04;9.38;;;4.30;;
20976;SDS011;10647;51.016;3.720;2022-07-11T10:47:38;8.98;;;3.80;;
20976;SDS011;10647;51.016;3.720;2022-07-11T10:50:13;7.20;;;4.10;;
20976;SDS011;10647;51.016;3.720;2022-07-11T10:52:50;8.85;;;4.20;;
20976;SDS011;10647;51.016;3.720;2022-07-11T10:55:29;7.00;;;3.20;;
20976;SDS011;10647;51.016;3.720;2022-07-11T10:57:58;8.93;;;4.12;;
20976;SDS011;10647;51.016;3.720;2022-07-11T11:00:28;9.38;;;3.52;;
20976;SDS011;10647;51.016;3.720;2022-07-11T11:03:08;5.60;;;3.50;;
20976;SDS011;10647;51.016;3.720;2022-07-11T11:11:03;5.03;;;3.22;;
20976;SDS011;10647;51.016;3.720;2022-07-11T11:13:35;7.35;;;4.08;;
20976;SDS011;10647;51.016;3.720;2022-07-11T11:16:24;7.00;;;3.87;;
20976;SDS011;10647;51.016;3.720;2022-07-11T11:18:42;7.03;;;4.05;;
20976;SDS011;10647;51.016;3.720;2022-07-11T11:21:14;6.53;;;3.98;;
20976;SDS011;10647;51.016;3.720;2022-07-11T11:23:43;5.87;;;3.20;;
20976;SDS011;10647;51.016;3.720;2022-07-11T11:26:16;8.55;;;2.92;;
20976;SDS011;10647;51.016;3.720;2022-07-11T11:28:55;5.25;;;3.25;;
20976;SDS011;10647;51.016;3.720;2022-07-11T11:31:30;5.12;;;2.87;;
20976;SDS011;10647;51.016;3.720;2022-07-11T11:33:59;8.00;;;3.40;;
20976;SDS011;10647;51.016;3.720;2022-07-11T11:36:29;6.85;;;3.42;;
20976;SDS011;10647;51.016;3.720;2022-07-11T11:38:57;6.17;;;3.55;;
20976;SDS011;10647;51.016;3.720;2022-07-11T11:41:31;6.25;;;3.50;;
20976;SDS011;10647;51.016;3.720;2022-07-11T11:43:59;6.87;;;3.67;;
20976;SDS011;10647;51.016;3.720;2022-07-11T11:46:30;7.33;;;3.55;;
20976;SDS011;10647;51.016;3.720;2022-07-11T11:49:00;4.85;;;3.00;;
20976;SDS011;10647;51.016;3.720;2022-07-11T11:51:35;6.78;;;3.60;;
20976;SDS011;10647;51.016;3.720;2022-07-11T11:54:03;8.93;;;3.90;;
20976;SDS011;10647;51.016;3.720;2022-07-11T11:56:32;7.03;;;2.95;;
20976;SDS011;10647;51.016;3.720;2022-07-11T11:59:03;5.62;;;3.15;;
20976;SDS011;10647;51.016;3.720;2022-07-11T12:01:42;4.35;;;2.70;;
20976;SDS011;10647;51.016;3.720;2022-07-11T12:04:17;4.95;;;2.70;;
20976;SDS011;10647;51.016;3.720;2022-07-11T12:06:45;6.22;;;3.35;;
20976;SDS011;10647;51.016;3.720;2022-07-11T12:09:19;6.78;;;3.70;;
20976;SDS011;10647;51.016;3.720;2022-07-11T12:12:01;6.87;;;3.50;;
20976;SDS011;10647;51.016;3.720;2022-07-11T12:17:27;19.23;;;4.00;;
20976;SDS011;10647;51.016;3.720;2022-07-11T12:19:48;10.58;;;4.20;;
20976;SDS011;10647;51.016;3.720;2022-07-11T12:22:16;6.78;;;3.40;;
20976;SDS011;10647;51.016;3.720;2022-07-11T12:24:47;6.55;;;3.22;;
20976;SDS011;10647;51.016;3.720;2022-07-11T12:27:19;5.60;;;3.30;;
20976;SDS011;10647;51.016;3.720;2022-07-11T12:30:15;5.70;;;2.90;;
20976;SDS011;10647;51.016;3.720;2022-07-11T12:32:38;10.00;;;3.60;;
20976;SDS011;10647;51.016;3.720;2022-07-11T12:35:10;6.85;;;3.15;;
20976;SDS011;10647;51.016;3.720;2022-07-11T12:37:39;4.22;;;2.70;;
20976;SDS011;10647;51.016;3.720;2022-07-11T12:40:09;4.95;;;2.92;;
20976;SDS011;10647;51.016;3.720;2022-07-11T12:42:39;5.90;;;2.55;;
20976;SDS011;10647;51.016;3.720;2022-07-11T12:45:07;4.70;;;2.87;;
20976;SDS011;10647;51.016;3.720;2022-07-11T12:50:13;7.60;;;3.02;;
20976;SDS011;10647;51.016;3.720;2022-07-11T12:52:46;6.50;;;3.20;;
20976;SDS011;10647;51.016;3.720;2022-07-11T12:58:11;6.65;;;2.87;;
20976;SDS011;10647;51.016;3.720;2022-07-11T13:00:57;5.53;;;2.77;;
20976;SDS011;10647;51.016;3.720;2022-07-11T13:03:32;4.25;;;2.37;;
20976;SDS011;10647;51.016;3.720;2022-07-11T13:06:02;8.70;;;2.42;;
20976;SDS011;10647;51.016;3.720;2022-07-11T13:08:35;4.53;;;2.47;;
20976;SDS011;10647;51.016;3.720;2022-07-11T13:11:16;2.60;;;1.50;;
20976;SDS011;10647;51.016;3.720;2022-07-11T13:13:50;2.83;;;1.70;;
20976;SDS011;10647;51.016;3.720;2022-07-11T13:16:18;3.55;;;2.15;;
20976;SDS011;10647;51.016;3.720;2022-07-11T13:18:46;6.17;;;2.12;;
20976;SDS011;10647;51.016;3.720;2022-07-11T13:21:15;4.08;;;2.00;;
20976;SDS011;10647;51.016;3.720;2022-07-11T13:23:43;4.90;;;2.00;;
20976;SDS011;10647;51.016;3.720;2022-07-11T13:26:11;3.90;;;1.95;;
20976;SDS011;10647;51.016;3.720;2022-07-11T13:28:39;7.00;;;2.08;;
20976;SDS011;10647;51.016;3.720;2022-07-11T13:31:07;6.08;;;2.47;;
20976;SDS011;10647;51.016;3.720;2022-07-11T13:33:34;4.70;;;2.42;;
20976;SDS011;10647;51.016;3.720;2022-07-11T13:36:03;3.72;;;1.87;;
20976;SDS011;10647;51.016;3.720;2022-07-11T13:38:31;3.70;;;1.67;;
20976;SDS011;10647;51.016;3.720;2022-07-11T13:40:59;4.60;;;1.70;;
20976;SDS011;10647;51.016;3.720;2022-07-11T13:43:27;3.37;;;1.80;;
20976;SDS011;10647;51.016;3.720;2022-07-11T13:45:55;3.90;;;2.02;;
20976;SDS011;10647;51.016;3.720;2022-07-11T13:48:28;3.33;;;1.50;;
20976;SDS011;10647;51.016;3.720;2022-07-11T13:50:56;3.15;;;1.60;;
20976;SDS011;10647;51.016;3.720;2022-07-11T13:53:23;3.00;;;1.60;;
20976;SDS011;10647;51.016;3.720;2022-07-11T13:55:51;2.85;;;1.60;;
20976;SDS011;10647;51.016;3.720;2022-07-11T13:58:19;4.55;;;1.87;;
20976;SDS011;10647;51.016;3.720;2022-07-11T14:00:59;2.40;;;1.57;;
20976;SDS011;10647;51.016;3.720;2022-07-11T14:03:27;5.80;;;1.60;;
20976;SDS011;10647;51.016;3.720;2022-07-11T14:05:55;3.30;;;1.80;;
20976;SDS011;10647;51.016;3.720;2022-07-11T14:08:24;3.30;;;1.77;;
20976;SDS011;10647;51.016;3.720;2022-07-11T14:10:52;3.90;;;1.32;;
20976;SDS011;10647;51.016;3.720;2022-07-11T14:13:19;5.67;;;1.50;;
20976;SDS011;10647;51.016;3.720;2022-07-11T14:15:47;7.60;;;1.80;;
20976;SDS011;10647;51.016;3.720;2022-07-11T14:18:15;5.75;;;2.20;;
20976;SDS011;10647;51.016;3.720;2022-07-11T14:20:43;3.58;;;1.80;;
20976;SDS011;10647;51.016;3.720;2022-07-11T14:23:10;3.77;;;1.60;;
20976;SDS011;10647;51.016;3.720;2022-07-11T14:25:40;3.37;;;1.50;;
20976;SDS011;10647;51.016;3.720;2022-07-11T14:28:08;3.22;;;1.62;;
20976;SDS011;10647;51.016;3.720;2022-07-11T14:30:35;6.20;;;1.50;;
20976;SDS011;10647;51.016;3.720;2022-07-11T14:33:03;6.08;;;1.55;;
20976;SDS011;10647;51.016;3.720;2022-07-11T14:35:31;3.50;;;1.30;;
20976;SDS011;10647;51.016;3.720;2022-07-11T14:37:58;2.72;;;1.20;;
20976;SDS011;10647;51.016;3.720;2022-07-11T14:40:26;2.65;;;1.15;;
20976;SDS011;10647;51.016;3.720;2022-07-11T14:42:54;5.08;;;1.10;;
20976;SDS011;10647;51.016;3.720;2022-07-11T14:45:22;4.42;;;1.20;;
20976;SDS011;10647;51.016;3.720;2022-07-11T14:47:49;1.90;;;1.00;;
20976;SDS011;10647;51.016;3.720;2022-07-11T14:50:17;4.58;;;1.42;;
20976;SDS011;10647;51.016;3.720;2022-07-11T14:52:45;2.72;;;0.93;;
20976;SDS011;10647;51.016;3.720;2022-07-11T14:55:14;3.12;;;1.05;;
20976;SDS011;10647;51.016;3.720;2022-07-11T14:57:42;2.25;;;1.07;;
20976;SDS011;10647;51.016;3.720;2022-07-11T15:00:09;5.28;;;1.50;;
20976;SDS011;10647;51.016;3.720;2022-07-11T15:02:37;4.03;;;0.90;;
20976;SDS011;10647;51.016;3.720;2022-07-11T15:05:23;2.40;;;1.40;;
20976;SDS011;10647;51.016;3.720;2022-07-11T15:07:51;3.30;;;1.35;;
20976;SDS011;10647;51.016;3.720;2022-07-11T15:10:26;4.05;;;1.30;;
20976;SDS011;10647;51.016;3.720;2022-07-11T15:13:14;2.62;;;1.22;;
20976;SDS011;10647;51.016;3.720;2022-07-11T15:15:43;2.27;;;0.85;;
20976;SDS011;10647;51.016;3.720;2022-07-11T15:18:12;3.17;;;0.80;;
20976;SDS011;10647;51.016;3.720;2022-07-11T15:20:40;2.17;;;1.05;;
20976;SDS011;10647;51.016;3.720;2022-07-11T15:23:08;1.10;;;0.93;;